createdAt,value
2023-05-02T13:04:44.481Z,18.00
2023-05-02T13:07:11.239Z,18.82
2023-05-02T13:09:37.807Z,19.65
2023-05-02T13:12:04.740Z,20.28
2023-05-02T13:14:31.377Z,20.71
2023-05-02T13:16:58.106Z,20.73
2023-05-02T13:19:24.703Z,21.45
2023-05-02T13:21:51.242Z,21.58
2023-05-02T13:24:17.925Z,21.63
2023-05-02T13:26:45.212Z,21.57
2023-05-02T13:29:15.531Z,21.64
2023-05-02T13:31:42.979Z,21.54
2023-05-02T13:34:09.707Z,21.57
2023-05-02T13:36:40.608Z,21.80
2023-05-02T13:39:07.138Z,22.28
2023-05-02T13:41:33.697Z,22.58
2023-05-02T13:44:00.350Z,22.86
2023-05-02T13:46:26.961Z,22.82
2023-05-02T13:48:53.508Z,22.46
2023-05-02T13:51:20.017Z,22.34
2023-05-02T13:54:04.839Z,22.35
2023-05-02T13:56:37.327Z,22.03
2023-05-02T13:59:06.100Z,21.51
2023-05-02T14:01:34.660Z,21.97
2023-05-02T14:04:06.777Z,23.96
2023-05-02T14:06:34.882Z,24.13
2023-05-02T14:09:01.747Z,24.68
2023-05-02T14:11:28.306Z,24.81
2023-05-02T14:13:57.407Z,24.65
2023-05-02T14:16:24.390Z,24.54
2023-05-02T14:18:51.096Z,24.18
2023-05-02T14:21:17.702Z,24.37
2023-05-02T14:23:44.383Z,23.99
2023-05-02T14:26:10.952Z,24.31
2023-05-02T14:28:38.455Z,24.42
2023-05-02T14:31:07.739Z,24.47
2023-05-02T14:33:34.322Z,24.27
2023-05-02T14:36:01.331Z,23.85
2023-05-02T14:38:28.037Z,23.89
2023-05-02T14:40:55.095Z,23.84
2023-05-02T14:43:21.940Z,23.58
2023-05-02T14:45:48.800Z,23.50
2023-05-02T14:48:17.237Z,23.70
2023-05-02T14:50:44.287Z,23.52
2023-05-02T14:53:11.838Z,23.45
2023-05-02T14:55:39.684Z,23.41
2023-05-02T14:58:08.780Z,23.38
2023-05-02T15:00:37.596Z,23.55
2023-05-02T15:03:07.685Z,23.40
2023-05-02T15:05:36.091Z,23.43
2023-05-02T15:08:02.778Z,23.31
2023-05-02T15:10:29.367Z,23.14
2023-05-02T15:12:56.220Z,22.97
2023-05-02T15:15:25.115Z,23.01
2023-05-02T15:17:52.822Z,23.08
2023-05-02T15:20:19.758Z,23.14
2023-05-02T15:22:46.600Z,23.28
2023-05-02T15:25:13.291Z,23.27
2023-05-02T15:27:39.797Z,23.21
2023-05-02T15:30:07.341Z,23.29
2023-05-02T15:32:33.864Z,23.34
2023-05-02T15:35:00.483Z,23.23
2023-05-02T15:37:27.051Z,23.41
2023-05-02T15:39:53.850Z,23.48
2023-05-02T15:42:20.631Z,23.68
2023-05-02T15:44:47.219Z,23.64
2023-05-02T15:47:13.796Z,23.61
2023-05-02T15:49:41.035Z,23.12
2023-05-02T15:52:07.692Z,23.45
2023-05-02T15:54:34.367Z,23.89
2023-05-02T15:57:02.388Z,24.08
2023-05-02T15:59:28.911Z,24.00
2023-05-02T16:01:55.761Z,23.59
2023-05-02T16:04:22.515Z,23.75
2023-05-02T16:06:49.237Z,23.48
2023-05-02T16:09:15.826Z,23.48
2023-05-02T16:11:42.415Z,23.38
2023-05-02T16:14:09.281Z,23.42
2023-05-02T16:16:35.946Z,23.24
2023-05-02T16:19:02.564Z,23.24
2023-05-02T16:21:29.141Z,23.18
2023-05-02T16:23:55.658Z,23.12
2023-05-02T16:26:22.299Z,23.11
2023-05-02T16:28:48.870Z,23.08
2023-05-02T16:31:16.097Z,22.94
2023-05-02T16:33:42.899Z,22.96
2023-05-02T16:36:10.077Z,22.62
2023-05-02T16:38:36.750Z,22.46
2023-05-02T16:41:05.080Z,22.42
2023-05-02T16:43:31.703Z,22.15
2023-05-02T16:46:06.033Z,22.14
2023-05-02T16:48:33.669Z,21.68
2023-05-02T16:51:03.208Z,20.89
2023-05-02T16:53:31.066Z,20.59
2023-05-02T16:55:59.270Z,20.50
2023-05-02T16:58:28.715Z,20.00
2023-05-02T17:00:56.123Z,19.79
2023-05-02T17:03:22.884Z,19.60
2023-05-02T17:05:49.432Z,19.56
2023-05-02T17:08:16.870Z,19.49
2023-05-02T17:10:48.523Z,19.22
2023-05-02T17:13:15.103Z,19.09
2023-05-02T17:15:41.892Z,19.10
2023-05-02T17:18:08.487Z,18.97
2023-05-02T17:20:35.928Z,18.89
2023-05-02T17:23:02.863Z,18.90
2023-05-02T17:25:30.536Z,18.80
2023-05-02T17:27:57.076Z,18.83
2023-05-02T17:30:25.014Z,18.96
2023-05-02T17:32:51.700Z,18.90
2023-05-02T17:35:18.307Z,19.00
2023-05-02T17:37:44.897Z,19.14
2023-05-02T17:40:12.235Z,19.17
2023-05-02T17:42:38.945Z,19.40
2023-05-02T17:45:06.748Z,19.41
2023-05-02T17:47:33.329Z,19.48
2023-05-02T17:50:02.488Z,19.40
2023-05-02T17:52:29.266Z,19.50
2023-05-02T17:54:55.796Z,19.48
2023-05-02T17:57:22.584Z,19.56
2023-05-02T17:59:50.573Z,19.40
2023-05-02T18:02:17.747Z,19.39
2023-05-02T18:04:46.202Z,19.53
2023-05-02T18:07:12.773Z,18.99
2023-05-02T18:09:39.305Z,19.30
2023-05-02T18:12:06.582Z,19.37
2023-05-02T18:14:33.452Z,19.39
2023-05-02T18:17:00.006Z,19.24
2023-05-02T18:19:26.531Z,19.21
2023-05-02T18:21:53.379Z,19.16
2023-05-02T18:24:19.911Z,19.19
2023-05-02T18:26:48.310Z,19.31
2023-05-02T18:29:14.844Z,19.28
2023-05-02T18:31:42.166Z,19.05
2023-05-02T18:34:09.073Z,18.91
2023-05-02T18:36:35.700Z,18.97
2023-05-02T18:39:02.251Z,19.01
2023-05-02T18:41:28.812Z,19.19
2023-05-02T18:43:56.129Z,19.19
2023-05-02T18:46:23.597Z,19.08
2023-05-02T18:48:50.141Z,19.07
2023-05-02T18:51:16.987Z,19.06
2023-05-02T18:53:43.579Z,19.24
2023-05-02T18:56:14.316Z,19.40
2023-05-02T18:58:42.033Z,19.40
2023-05-02T19:01:15.840Z,19.45
2023-05-02T19:03:46.156Z,19.49
2023-05-02T19:06:13.393Z,19.47
2023-05-02T19:08:40.288Z,19.51
2023-05-02T19:11:07.062Z,19.62
2023-05-02T19:13:33.740Z,19.33
2023-05-02T19:16:00.923Z,19.31
2023-05-02T19:18:27.503Z,19.36
2023-05-02T19:20:53.994Z,19.29
2023-05-02T19:23:20.907Z,19.21
2023-05-02T19:25:47.622Z,19.45
2023-05-02T19:28:16.729Z,19.45
2023-05-02T19:30:44.265Z,19.33
2023-05-02T19:33:10.937Z,19.20
2023-05-02T19:35:37.512Z,19.31
2023-05-02T19:38:04.054Z,19.42
2023-05-02T19:40:31.048Z,19.34
2023-05-02T19:42:57.686Z,19.35
2023-05-02T19:45:24.288Z,19.29
2023-05-02T19:47:50.869Z,19.40
2023-05-02T19:50:17.564Z,19.32
2023-05-02T19:52:44.856Z,19.28
2023-05-02T19:55:11.483Z,18.97
2023-05-02T19:57:38.035Z,18.87
2023-05-02T20:00:07.113Z,18.96
2023-05-02T20:02:39.216Z,19.15
2023-05-02T20:05:06.333Z,19.06
2023-05-02T20:07:32.878Z,18.89
2023-05-02T20:09:59.701Z,18.72
2023-05-02T20:12:26.371Z,18.71
2023-05-02T20:14:52.920Z,18.87
2023-05-02T20:17:19.453Z,18.92
2023-05-02T20:19:46.059Z,18.94
2023-05-02T20:22:12.604Z,18.95
2023-05-02T20:24:39.157Z,18.90
2023-05-02T20:27:05.705Z,18.84
2023-05-02T20:29:32.288Z,18.82
2023-05-02T20:31:59.356Z,18.69
2023-05-02T20:34:25.999Z,18.55
2023-05-02T20:36:52.715Z,18.40
2023-05-02T20:39:21.634Z,18.52
2023-05-02T20:41:51.047Z,18.42
2023-05-02T20:44:18.571Z,18.61
2023-05-02T20:46:45.148Z,18.32
2023-05-02T20:49:11.782Z,18.19
2023-05-02T20:51:38.380Z,18.27
2023-05-02T20:54:05.419Z,18.28
2023-05-02T20:56:31.962Z,18.17
2023-05-02T20:58:58.490Z,18.34
2023-05-02T21:01:25.851Z,18.56
2023-05-02T21:03:52.437Z,18.29
2023-05-02T21:06:20.848Z,18.21
2023-05-02T21:08:47.472Z,18.25
2023-05-02T21:11:17.030Z,18.26
2023-05-02T21:13:43.766Z,18.26
2023-05-02T21:16:14.985Z,18.23
2023-05-02T21:18:41.747Z,18.21
2023-05-02T21:21:08.609Z,18.21
2023-05-02T21:23:35.415Z,18.29
2023-05-02T21:26:01.998Z,18.21
2023-05-02T21:28:29.044Z,18.15
2023-05-02T21:30:55.591Z,18.06
2023-05-02T21:33:22.287Z,18.02
2023-05-02T21:35:57.817Z,18.17
2023-05-02T21:38:26.779Z,18.20
2023-05-02T21:40:53.612Z,18.00
2023-05-02T21:43:20.732Z,18.00
2023-05-02T21:45:49.392Z,17.88
2023-05-02T21:48:17.036Z,17.92
2023-05-02T21:50:44.750Z,17.96
2023-05-02T21:53:11.320Z,17.81
2023-05-02T21:55:39.487Z,17.78
2023-05-02T21:58:10.646Z,17.88
2023-05-02T22:00:38.300Z,17.74
2023-05-02T22:03:11.431Z,17.72
2023-05-02T22:05:39.910Z,17.86
2023-05-02T22:08:07.910Z,17.76
2023-05-02T22:10:37.891Z,17.78
2023-05-02T22:13:05.680Z,17.67
2023-05-02T22:15:32.212Z,17.73
2023-05-02T22:17:58.851Z,17.40
2023-05-02T22:20:26.046Z,17.53
2023-05-02T22:22:52.581Z,17.62
2023-05-02T22:25:19.162Z,17.71
2023-05-02T22:27:45.786Z,17.67
2023-05-02T22:30:12.443Z,17.66
2023-05-02T22:32:39.098Z,17.69
2023-05-02T22:35:06.794Z,17.83
2023-05-02T22:37:33.321Z,17.87
2023-05-02T22:40:00.095Z,17.79
2023-05-02T22:42:26.933Z,17.89
2023-05-02T22:44:54.497Z,17.68
2023-05-02T22:47:21.716Z,17.73
2023-05-02T22:49:49.071Z,17.66
2023-05-02T22:52:15.705Z,17.56
2023-05-02T22:54:42.222Z,17.58
2023-05-02T22:57:08.753Z,17.58
2023-05-02T22:59:35.267Z,17.55
2023-05-02T23:02:01.867Z,17.56
2023-05-02T23:04:28.443Z,17.61
2023-05-02T23:06:55.082Z,17.44
2023-05-02T23:09:21.652Z,17.39
2023-05-02T23:11:48.184Z,17.60
2023-05-02T23:14:15.064Z,17.43
2023-05-02T23:16:41.708Z,17.39
2023-05-02T23:19:08.283Z,17.42
2023-05-02T23:21:34.820Z,17.52
2023-05-02T23:24:01.365Z,17.53
2023-05-02T23:26:28.009Z,17.35
2023-05-02T23:28:54.549Z,17.25
2023-05-02T23:31:21.361Z,17.30
2023-05-02T23:33:47.971Z,17.16
2023-05-02T23:36:14.559Z,17.09
2023-05-02T23:38:41.593Z,17.01
2023-05-02T23:41:08.556Z,17.07
2023-05-02T23:43:35.494Z,17.11
2023-05-02T23:46:02.430Z,17.05
2023-05-02T23:48:28.973Z,16.99
2023-05-02T23:50:55.485Z,17.00
2023-05-02T23:53:22.047Z,16.97
2023-05-02T23:55:48.610Z,16.96
2023-05-02T23:58:15.261Z,16.93
